To NAV CANADA Home Page Login to a new session Search on AWWS site Feedback and Comments Disclaimer Vers la page française équivalente Tips FAQ What's new on the site To the Forecasts and Observations / NOTAM section To "File a Flight Plan" website Publications and other links Update of the User's profile FIC Telephone Numbers My Weather Data Folder Route Weather Data Regional Weather Data Local Weather Data To the Forecasts and Observations / NOTAM section
Request Generated 05/29/2015 at 16:08:28 UTC . Weather information available at that time is displayed.

METAR/TAF

FORT ST. JOHN/BC    

METAR CYXJ 291600Z 09011KT 15SM FEW060 BKN130 09/M01 A3024 RMK SC1AC6
SLP259=
METAR CYXJ 291500Z 06007KT 15SM FEW060 BKN120 08/M01 A3025 RMK SC2AC4
SLP260=
METAR CYXJ 291400Z 06006KT 15SM SCT060 BKN110 06/M02 A3024 RMK SC3AC2
SLP260=

TAF CYXJ 291238Z 2913/3001 10007KT P6SM FEW080 BKN200
RMK NXT FCST BY 291900Z=
Your time UTC time
Weather data provided by Environment Canada and NAV CANADA